Time;durP1;ratioP1;P1;durP2;ratioP2;P2;SDS_P1;SDS_P2;PMS_P1;PMS_P2;Temp;Humidity;BMP_temperature;BMP_pressure;BME280_temperature;BME280_humidity;BME280_pressure;Samples;Min_cycle;Max_cycle;Signal;HPM_P1;HPM_P2
2023/02/05 00:02:00;;;;;;;3.75;2.10;;;-4.20;99.90;;;;;;5048487;28;20071;-60
2023/02/05 00:04:26;;;;;;;4.63;2.38;;;-4.20;99.90;;;;;;5049891;28;20029;-62
2023/02/05 00:06:51;;;;;;;4.20;2.50;;;-4.20;99.90;;;;;;5026388;28;20025;-64
2023/02/05 00:09:17;;;;;;;7.50;2.22;;;-4.10;99.90;;;;;;5030354;28;20037;-63
2023/02/05 00:11:42;;;;;;;4.93;2.42;;;-4.10;99.90;;;;;;5047249;28;20032;-64
2023/02/05 00:14:09;;;;;;;4.78;2.25;;;-4.10;99.90;;;;;;5049450;28;20048;-63
2023/02/05 00:16:35;;;;;;;4.72;2.50;;;-4.10;99.90;;;;;;5029439;28;20100;-63
2023/02/05 00:19:00;;;;;;;5.35;2.60;;;-4.10;99.90;;;;;;5030783;28;20101;-63
2023/02/05 00:21:26;;;;;;;5.32;1.80;;;-4.20;99.90;;;;;;5047787;28;20718;-63
2023/02/05 00:23:52;;;;;;;3.58;2.03;;;-4.20;99.90;;;;;;5049370;28;20024;-63
2023/02/05 00:26:18;;;;;;;6.18;2.30;;;-4.20;99.90;;;;;;5029166;28;20048;-63
2023/02/05 00:28:44;;;;;;;4.13;2.50;;;-4.20;99.90;;;;;;5029387;28;20026;-64
2023/02/05 00:31:13;;;;;;;5.95;3.00;;;-4.20;99.90;;;;;;5049839;28;20404;-63
2023/02/05 00:33:38;;;;;;;6.07;2.45;;;-4.30;99.90;;;;;;5050518;28;20415;-64
2023/02/05 00:36:04;;;;;;;6.68;2.90;;;-4.30;99.90;;;;;;5031009;28;20025;-63
2023/02/05 00:38:30;;;;;;;5.20;2.58;;;-4.30;99.90;;;;;;5028826;28;20116;-63
2023/02/05 00:40:55;;;;;;;6.35;2.72;;;-4.30;99.90;;;;;;5049498;28;20112;-63
2023/02/05 00:43:21;;;;;;;5.13;2.42;;;-4.30;99.90;;;;;;5046860;28;20121;-62
2023/02/05 00:45:47;;;;;;;6.93;2.60;;;-4.30;99.90;;;;;;5029530;28;20108;-63
2023/02/05 00:48:12;;;;;;;2.70;1.80;;;-4.30;99.90;;;;;;5031151;28;20587;-63
2023/02/05 00:50:38;;;;;;;4.97;2.03;;;-4.30;99.90;;;;;;5049427;28;20043;-64
2023/02/05 00:53:03;;;;;;;5.03;2.42;;;-4.30;99.90;;;;;;5044040;28;20032;-64
2023/02/05 00:55:29;;;;;;;7.20;3.67;;;-4.30;99.90;;;;;;5029290;28;20026;-63
2023/02/05 00:57:55;;;;;;;7.80;2.78;;;-4.30;99.90;;;;;;5033282;28;20109;-63
2023/02/05 01:00:21;;;;;;;4.88;2.88;;;-4.30;99.90;;;;;;5049132;28;20055;-62
2023/02/05 01:02:46;;;;;;;6.53;2.60;;;-4.30;99.90;;;;;;5041297;28;20036;-63
2023/02/05 01:05:12;;;;;;;6.40;2.88;;;-4.20;99.90;;;;;;5033966;28;20104;-64
2023/02/05 01:07:37;;;;;;;3.65;2.40;;;-4.20;99.90;;;;;;5047266;28;20109;-63
2023/02/05 01:10:05;;;;;;;9.95;4.00;;;-4.20;99.90;;;;;;5029574;28;20061;-64
2023/02/05 01:12:32;;;;;;;12.00;3.28;;;-4.20;99.90;;;;;;5046616;28;20555;-63
2023/02/05 01:14:58;;;;;;;7.00;3.78;;;-4.20;99.90;;;;;;5048292;28;20100;-64
2023/02/05 01:17:24;;;;;;;8.50;3.75;;;-4.10;99.90;;;;;;5027927;28;20060;-63
2023/02/05 01:19:49;;;;;;;11.40;3.55;;;-4.10;99.90;;;;;;5048757;28;20111;-63
2023/02/05 01:22:15;;;;;;;13.48;4.28;;;-4.10;99.90;;;;;;5026403;28;20026;-63
2023/02/05 01:24:40;;;;;;;4.38;2.42;;;-4.10;99.90;;;;;;5048291;28;20552;-63
2023/02/05 01:27:06;;;;;;;7.50;3.45;;;-4.10;99.90;;;;;;5028096;28;20079;-64
2023/02/05 01:29:31;;;;;;;8.70;3.83;;;-4.10;99.90;;;;;;5029220;28;20057;-63
2023/02/05 01:31:57;;;;;;;7.85;3.30;;;-4.20;99.90;;;;;;5046317;28;20102;-63
2023/02/05 01:34:22;;;;;;;8.15;3.22;;;-4.20;99.90;;;;;;5049270;28;20036;-63
2023/02/05 01:36:48;;;;;;;6.50;3.42;;;-4.20;99.90;;;;;;5027692;28;20115;-63
2023/02/05 01:39:13;;;;;;;5.45;2.70;;;-4.20;99.90;;;;;;5027983;28;20029;-64
2023/02/05 01:41:44;;;;;;;8.05;3.10;;;-4.20;99.90;;;;;;5046322;28;20033;-64
2023/02/05 01:44:21;;;;;;;9.63;3.45;;;-4.30;99.90;;;;;;5048930;28;20407;-63
2023/02/05 01:46:47;;;;;;;8.60;3.00;;;-4.30;99.90;;;;;;5027220;28;20048;-63
2023/02/05 01:49:50;;;;;;;5.18;2.05;;;-4.40;99.90;;;;;;5028967;28;20017;-63
2023/02/05 01:52:17;;;;;;;5.32;2.53;;;-4.40;99.90;;;;;;4946498;28;20058;-63
2023/02/05 01:54:45;;;;;;;6.80;2.83;;;-4.50;99.90;;;;;;5031418;28;20033;-63
2023/02/05 01:57:18;;;;;;;6.13;2.70;;;-4.60;99.90;;;;;;5027065;28;20052;-63
2023/02/05 01:59:44;;;;;;;8.68;3.55;;;-4.60;99.90;;;;;;5028866;28;20057;-63
2023/02/05 02:02:10;;;;;;;5.75;2.38;;;-4.60;99.90;;;;;;5046195;28;20520;-64
2023/02/05 02:04:42;;;;;;;6.63;2.67;;;-4.70;99.90;;;;;;5031150;28;20040;-63
2023/02/05 02:07:15;;;;;;;11.13;3.33;;;-4.70;99.90;;;;;;5044169;28;20408;-63
2023/02/05 02:09:42;;;;;;;6.97;2.70;;;-4.80;99.90;;;;;;5027646;28;20040;-64
2023/02/05 02:12:09;;;;;;;4.75;2.53;;;-4.80;99.90;;;;;;5030619;28;20037;-63
2023/02/05 02:14:37;;;;;;;7.15;3.00;;;-4.80;99.90;;;;;;5048839;28;20147;-64
2023/02/05 02:17:04;;;;;;;8.63;3.65;;;-4.80;99.90;;;;;;5040859;28;20044;-64
2023/02/05 02:19:30;;;;;;;11.82;3.40;;;-4.80;99.90;;;;;;5028898;28;20033;-63
2023/02/05 02:22:11;;;;;;;4.75;3.20;;;-4.80;99.90;;;;;;5031974;28;20029;-64
2023/02/05 02:25:01;;;;;;;5.55;2.97;;;-4.80;99.90;;;;;;5028790;28;20104;-63
2023/02/05 02:27:47;;;;;;;9.27;3.70;;;-4.90;99.90;;;;;;5044975;28;20025;-64
2023/02/05 02:30:19;;;;;;;12.93;4.05;;;-4.90;99.90;;;;;;5028690;28;20017;-64
2023/02/05 02:33:18;;;;;;;6.18;3.70;;;-4.90;99.90;;;;;;5028648;28;20511;-63
2023/02/05 02:35:53;;;;;;;6.13;2.75;;;-4.90;99.90;;;;;;5030768;28;20060;-63
2023/02/05 02:38:38;;;;;;;7.70;3.40;;;-4.90;99.90;;;;;;5032904;28;20034;-64
2023/02/05 02:41:24;;;;;;;5.03;2.45;;;-5.00;99.90;;;;;;5030792;28;20036;-63
2023/02/05 02:43:54;;;;;;;5.50;2.83;;;-5.00;99.90;;;;;;5032700;28;20033;-63
2023/02/05 02:46:45;;;;;;;14.57;3.72;;;-5.00;99.90;;;;;;5030651;28;20045;-64
2023/02/05 02:49:15;;;;;;;5.95;3.88;;;-5.10;99.90;;;;;;5032422;28;20119;-64
2023/02/05 02:51:42;;;;;;;6.95;3.45;;;-5.10;99.90;;;;;;5042216;28;20269;-64
2023/02/05 02:54:13;;;;;;;6.35;3.42;;;-5.20;99.90;;;;;;5032657;28;20021;-63
2023/02/05 02:56:40;;;;;;;5.95;3.40;;;-5.20;99.90;;;;;;5030390;28;20028;-63
2023/02/05 02:59:14;;;;;;;8.25;3.78;;;-5.20;99.90;;;;;;5051684;28;20075;-64
2023/02/05 03:01:42;;;;;;;3.70;2.38;;;-5.20;99.90;;;;;;5030138;28;20033;-63
2023/02/05 03:04:16;;;;;;;6.50;3.22;;;-5.30;99.90;;;;;;5051728;28;20696;-64
2023/02/05 03:06:45;;;;;;;8.20;3.10;;;-5.30;99.90;;;;;;5027276;28;20057;-63
2023/02/05 03:09:23;;;;;;;4.95;2.53;;;-5.30;99.90;;;;;;5051830;28;20053;-63
2023/02/05 03:11:49;;;;;;;3.80;2.80;;;-5.40;99.90;;;;;;5033642;28;20022;-63
2023/02/05 03:14:15;;;;;;;7.72;2.95;;;-5.40;99.90;;;;;;5048906;28;20060;-63
2023/02/05 03:16:40;;;;;;;5.97;2.88;;;-5.40;99.90;;;;;;5034239;28;20034;-63
2023/02/05 03:19:06;;;;;;;6.05;2.88;;;-5.50;99.90;;;;;;5050060;28;20040;-63
2023/02/05 03:21:37;;;;;;;5.15;2.45;;;-5.50;99.90;;;;;;5029301;28;20033;-63
2023/02/05 03:24:03;;;;;;;3.80;2.20;;;-5.50;99.90;;;;;;5031133;28;20128;-63
2023/02/05 03:26:31;;;;;;;4.30;2.25;;;-5.50;99.90;;;;;;5048848;28;20029;-62
2023/02/05 03:29:01;;;;;;;5.53;2.58;;;-5.50;99.90;;;;;;5031750;28;20029;-63
2023/02/05 03:31:41;;;;;;;2.40;1.90;;;-5.50;99.90;;;;;;5049227;28;20025;-63
2023/02/05 03:34:18;;;;;;;2.47;1.77;;;-5.50;99.90;;;;;;5031864;28;20690;-63
2023/02/05 03:37:26;;;;;;;5.40;2.42;;;-5.60;99.90;;;;;;5041903;28;20094;-63
2023/02/05 03:39:54;;;;;;;3.58;1.88;;;-5.60;99.90;;;;;;5031692;28;20037;-63
2023/02/05 03:43:02;;;;;;;5.10;1.83;;;-5.60;99.90;;;;;;5031520;28;20033;-64
2023/02/05 03:45:42;;;;;;;3.63;2.17;;;-5.60;99.90;;;;;;5048786;28;20029;-64
2023/02/05 03:48:29;;;;;;;3.13;2.40;;;-5.60;99.90;;;;;;5051317;28;20108;-64
2023/02/05 03:51:17;;;;;;;4.85;2.72;;;-5.60;99.90;;;;;;5029390;28;20024;-64
2023/02/05 03:53:56;;;;;;;3.30;1.77;;;-5.70;99.90;;;;;;5050918;28;20075;-64
2023/02/05 03:56:45;;;;;;;2.28;1.55;;;-5.80;99.90;;;;;;5029343;28;20083;-63
2023/02/05 03:59:13;;;;;;;4.68;1.85;;;-5.80;99.90;;;;;;5016998;28;20049;-64
2023/02/05 04:01:39;;;;;;;4.25;2.30;;;-5.80;99.90;;;;;;5037089;28;20433;-64
2023/02/05 04:04:04;;;;;;;4.00;2.58;;;-5.90;99.90;;;;;;5050329;28;20524;-64
2023/02/05 04:06:30;;;;;;;3.60;2.00;;;-5.90;99.90;;;;;;5023974;28;20537;-64
2023/02/05 04:08:55;;;;;;;3.97;2.53;;;-5.90;99.90;;;;;;5050207;28;20033;-64
2023/02/05 04:11:21;;;;;;;5.18;2.92;;;-5.90;99.90;;;;;;5029702;28;20029;-64
2023/02/05 04:13:46;;;;;;;5.60;2.88;;;-5.90;99.90;;;;;;5049783;28;20055;-64
2023/02/05 04:16:12;;;;;;;5.75;2.20;;;-5.90;99.90;;;;;;5029400;28;20643;-64
2023/02/05 04:18:37;;;;;;;4.50;3.10;;;-5.90;99.90;;;;;;5049857;28;20517;-63
2023/02/05 04:21:03;;;;;;;5.93;3.10;;;-6.00;99.90;;;;;;5029345;28;20511;-64
2023/02/05 04:23:29;;;;;;;3.63;2.40;;;-6.00;99.90;;;;;;5030489;28;20034;-64
2023/02/05 04:25:55;;;;;;;6.47;2.17;;;-6.00;99.90;;;;;;5047891;28;20025;-64
2023/02/05 04:28:20;;;;;;;5.90;3.00;;;-6.00;99.90;;;;;;5050694;28;20074;-63
2023/02/05 04:30:46;;;;;;;4.55;2.53;;;-6.00;99.90;;;;;;5029049;28;20105;-60
2023/02/05 04:33:11;;;;;;;5.90;2.47;;;-6.00;99.90;;;;;;5030575;28;20535;-60
2023/02/05 04:35:37;;;;;;;2.45;2.10;;;-6.00;99.90;;;;;;5047829;28;20040;-58
2023/02/05 04:38:03;;;;;;;5.13;2.70;;;-6.00;99.90;;;;;;5032528;28;20424;-58
2023/02/05 04:40:28;;;;;;;5.40;2.40;;;-5.90;99.90;;;;;;5049652;28;20070;-58
2023/02/05 04:42:54;;;;;;;3.78;2.38;;;-5.90;99.90;;;;;;5043854;28;20032;-58
2023/02/05 04:45:21;;;;;;;5.53;2.42;;;-5.90;99.90;;;;;;5031191;28;20499;-58
2023/02/05 04:47:47;;;;;;;4.93;2.40;;;-5.80;99.90;;;;;;5032796;28;20448;-55
2023/02/05 04:50:12;;;;;;;2.42;2.05;;;-5.80;99.90;;;;;;5048212;28;20025;-59
2023/02/05 04:52:38;;;;;;;3.95;2.40;;;-5.70;99.90;;;;;;5041524;28;20040;-58
2023/02/05 04:55:04;;;;;;;5.82;2.40;;;-5.70;99.90;;;;;;5030797;28;20034;-58
2023/02/05 04:57:30;;;;;;;3.80;2.25;;;-5.60;99.90;;;;;;5033576;28;20472;-57
2023/02/05 04:59:56;;;;;;;3.88;2.83;;;-5.60;99.90;;;;;;5043866;28;20034;-59
2023/02/05 05:02:22;;;;;;;3.13;2.28;;;-5.60;99.90;;;;;;5037717;28;20511;-57
2023/02/05 05:04:47;;;;;;;4.57;2.75;;;-5.50;99.90;;;;;;5041470;28;20041;-56
2023/02/05 05:07:13;;;;;;;5.13;2.92;;;-5.50;99.90;;;;;;5036171;28;20637;-54
2023/02/05 05:09:38;;;;;;;3.22;1.95;;;-5.40;99.90;;;;;;5025831;28;20049;-56
2023/02/05 05:12:04;;;;;;;4.65;2.78;;;-5.40;99.90;;;;;;5025731;28;20516;-58
2023/02/05 05:14:30;;;;;;;3.40;2.08;;;-5.30;99.90;;;;;;5027644;28;20116;-56
2023/02/05 05:16:55;;;;;;;5.03;2.80;;;-5.30;99.90;;;;;;5043425;28;20040;-58
2023/02/05 05:19:21;;;;;;;6.70;2.58;;;-5.20;99.90;;;;;;5036603;28;20067;-58
2023/02/05 05:21:46;;;;;;;5.97;2.40;;;-5.20;99.90;;;;;;5033741;28;20506;-57
2023/02/05 05:24:12;;;;;;;4.80;2.15;;;-5.10;99.90;;;;;;5045822;28;20033;-56
2023/02/05 05:26:42;;;;;;;7.63;2.95;;;-5.10;99.90;;;;;;5047104;28;20440;-55
2023/02/05 05:29:12;;;;;;;7.97;2.83;;;-5.10;99.90;;;;;;5034694;28;20026;-58
2023/02/05 05:31:39;;;;;;;3.58;2.20;;;-5.10;99.90;;;;;;5046547;28;20117;-58
2023/02/05 05:34:04;;;;;;;2.95;1.98;;;-5.10;99.90;;;;;;5044265;28;20056;-58
2023/02/05 05:36:30;;;;;;;5.40;2.40;;;-5.00;99.90;;;;;;5042636;28;20497;-58
2023/02/05 05:43:45;;;;;;;3.05;2.05;;;-5.00;99.90;;;;;;5042993;28;20090;-56
2023/02/05 05:44:25;;;;;;;3.67;2.20;;;-5.00;99.90;;;;;;5026907;28;20063;-58
2023/02/05 05:46:50;;;;;;;3.70;2.13;;;-5.00;99.90;;;;;;5043766;28;20033;-58
2023/02/05 05:49:16;;;;;;;6.13;2.50;;;-5.00;99.90;;;;;;5034400;28;20063;-59
2023/02/05 05:51:41;;;;;;;3.65;2.22;;;-5.00;99.90;;;;;;5026658;28;20036;-60
2023/02/05 05:54:06;;;;;;;4.60;2.97;;;-5.00;99.90;;;;;;5039128;28;20485;-59
2023/02/05 05:56:32;;;;;;;6.15;2.70;;;-5.00;99.90;;;;;;5023704;28;20033;-59
2023/02/05 05:58:58;;;;;;;5.50;2.83;;;-4.90;99.90;;;;;;5025348;28;20018;-59
2023/02/05 06:01:23;;;;;;;4.45;2.88;;;-4.90;99.90;;;;;;5041001;28;20021;-59
2023/02/05 06:03:49;;;;;;;3.25;2.28;;;-4.90;99.90;;;;;;5025626;28;20489;-60
2023/02/05 06:06:14;;;;;;;5.68;3.15;;;-4.80;99.90;;;;;;5037368;28;20041;-59
2023/02/05 06:08:40;;;;;;;5.65;2.63;;;-4.80;99.90;;;;;;5045436;28;20037;-58
2023/02/05 06:11:05;;;;;;;4.38;2.42;;;-4.80;99.90;;;;;;5035393;28;20381;-57
2023/02/05 06:13:31;;;;;;;8.82;3.45;;;-4.80;99.90;;;;;;5041992;28;20520;-57
2023/02/05 06:15:56;;;;;;;6.15;3.67;;;-4.80;99.90;;;;;;5026124;28;20022;-58
2023/02/05 06:18:22;;;;;;;6.55;3.40;;;-4.80;99.90;;;;;;5028122;28;20091;-57
2023/02/05 06:20:48;;;;;;;4.95;3.00;;;-4.80;99.90;;;;;;5037857;28;20048;-59
2023/02/05 06:23:13;;;;;;;5.43;3.08;;;-4.80;99.90;;;;;;5040691;28;20041;-59
2023/02/05 06:25:39;;;;;;;5.97;3.10;;;-4.80;99.90;;;;;;5028812;28;20401;-59
2023/02/05 06:28:04;;;;;;;5.90;3.53;;;-4.80;99.90;;;;;;5038533;28;20041;-59
2023/02/05 06:30:30;;;;;;;3.92;2.25;;;-4.80;99.90;;;;;;5024521;28;20037;-59
2023/02/05 06:32:55;;;;;;;8.05;3.38;;;-4.80;99.90;;;;;;5028469;28;20037;-58
2023/02/05 06:35:21;;;;;;;4.95;2.90;;;-4.70;99.90;;;;;;5043003;28;20025;-58
2023/02/05 06:37:46;;;;;;;8.63;3.17;;;-4.70;99.90;;;;;;5037122;28;20064;-58
2023/02/05 06:40:14;;;;;;;5.05;2.63;;;-4.70;99.90;;;;;;5026177;28;20038;-59
2023/02/05 06:42:40;;;;;;;6.35;3.17;;;-4.60;99.90;;;;;;5040160;28;20029;-58
2023/02/05 06:45:06;;;;;;;5.70;1.98;;;-4.60;99.90;;;;;;5034323;28;20045;-59
2023/02/05 06:47:31;;;;;;;4.75;3.10;;;-4.50;99.90;;;;;;5034611;28;20052;-58
2023/02/05 06:49:57;;;;;;;3.90;2.55;;;-4.50;99.90;;;;;;5028043;28;20565;-59
2023/02/05 06:52:22;;;;;;;7.47;3.70;;;-4.40;99.90;;;;;;5024097;28;20124;-59
2023/02/05 06:54:47;;;;;;;8.45;3.92;;;-4.30;99.90;;;;;;5046054;28;20400;-59
2023/02/05 06:57:13;;;;;;;8.25;3.85;;;-4.20;99.90;;;;;;5028125;28;20611;-60
2023/02/05 06:59:38;;;;;;;10.63;4.28;;;-4.20;99.90;;;;;;5026677;28;20064;-60
2023/02/05 07:02:04;;;;;;;7.95;3.60;;;-4.10;99.90;;;;;;5044552;28;20037;-60
2023/02/05 07:04:30;;;;;;;7.72;3.85;;;-4.00;99.90;;;;;;5045706;28;20079;-60
2023/02/05 07:06:56;;;;;;;7.97;4.25;;;-3.90;99.90;;;;;;5023645;28;20030;-60
2023/02/05 07:09:22;;;;;;;11.02;5.38;;;-3.80;99.90;;;;;;5025151;28;20026;-60
2023/02/05 07:11:48;;;;;;;10.73;5.53;;;-3.70;99.90;;;;;;5045080;28;20025;-59
2023/02/05 07:14:14;;;;;;;9.27;5.72;;;-3.60;99.90;;;;;;5043424;28;20049;-59
2023/02/05 07:16:39;;;;;;;11.20;6.20;;;-3.50;99.90;;;;;;5025610;28;20041;-59
2023/02/05 07:19:05;;;;;;;13.48;6.80;;;-3.50;99.90;;;;;;5043173;28;20037;-59
2023/02/05 07:21:30;;;;;;;12.13;6.18;;;-3.40;99.90;;;;;;5030298;28;20401;-59
2023/02/05 07:23:56;;;;;;;11.57;5.22;;;-3.40;99.90;;;;;;5032253;28;20132;-59
2023/02/05 07:26:22;;;;;;;7.90;4.30;;;-3.30;99.90;;;;;;5049809;28;20497;-59
2023/02/05 07:28:48;;;;;;;8.68;5.03;;;-3.20;99.90;;;;;;5043759;28;20032;-59
2023/02/05 07:31:19;;;;;;;9.50;5.22;;;-3.10;99.90;;;;;;5031249;28;20030;-59
2023/02/05 07:33:46;;;;;;;14.40;5.93;;;-3.10;99.90;;;;;;5043327;28;20037;-59
2023/02/05 07:36:17;;;;;;;13.93;5.05;;;-3.00;99.90;;;;;;5031057;28;20037;-58
2023/02/05 07:38:44;;;;;;;15.00;6.13;;;-2.90;99.90;;;;;;5042995;28;20025;-59
2023/02/05 07:41:12;;;;;;;14.50;6.90;;;-2.90;99.90;;;;;;5030994;28;20037;-58
2023/02/05 07:43:38;;;;;;;12.88;6.18;;;-2.80;99.90;;;;;;5034700;28;20037;-59
2023/02/05 07:46:09;;;;;;;12.05;6.00;;;-2.80;99.90;;;;;;5049990;28;20025;-59
2023/02/05 07:48:35;;;;;;;11.48;4.97;;;-2.70;99.90;;;;;;5042068;28;20033;-58
2023/02/05 07:51:01;;;;;;;8.93;4.85;;;-2.60;99.90;;;;;;5030820;28;20040;-58
2023/02/05 07:53:27;;;;;;;9.57;5.10;;;-2.60;99.90;;;;;;5043454;28;20037;-59
2023/02/05 07:55:52;;;;;;;11.65;4.82;;;-2.50;99.90;;;;;;5029570;28;20092;-59
2023/02/05 07:58:18;;;;;;;9.52;4.90;;;-2.40;99.90;;;;;;5036895;28;20044;-60
2023/02/05 08:00:44;;;;;;;9.00;4.80;;;-2.30;99.90;;;;;;5049553;28;20052;-59
2023/02/05 08:03:10;;;;;;;8.70;5.10;;;-2.30;99.90;;;;;;5028665;28;20444;-59
2023/02/05 08:05:37;;;;;;;8.05;4.82;;;-2.20;99.90;;;;;;5034621;28;20553;-58
2023/02/05 08:08:03;;;;;;;8.32;4.97;;;-2.20;99.90;;;;;;5046127;28;20484;-59
2023/02/05 08:10:28;;;;;;;9.65;4.53;;;-2.20;99.90;;;;;;5030342;28;20028;-59
2023/02/05 08:12:54;;;;;;;9.73;5.22;;;-2.10;99.90;;;;;;5045929;28;20048;-59
2023/02/05 08:15:20;;;;;;;8.52;4.72;;;-2.00;99.90;;;;;;5029820;28;20114;-59
2023/02/05 08:17:45;;;;;;;7.97;3.90;;;-1.90;99.90;;;;;;5040823;28;20037;-59
2023/02/05 08:20:11;;;;;;;7.03;4.57;;;-1.80;99.90;;;;;;5029882;28;20076;-63
2023/02/05 08:22:39;;;;;;;7.88;4.45;;;-1.70;99.90;;;;;;5047287;28;20033;-59
2023/02/05 08:25:07;;;;;;;7.38;4.57;;;-1.60;99.90;;;;;;5049896;28;20033;-60
2023/02/05 08:27:34;;;;;;;10.45;4.97;;;-1.60;99.90;;;;;;5028070;28;20040;-59
2023/02/05 08:30:00;;;;;;;10.80;5.18;;;-1.50;99.90;;;;;;5029890;28;20133;-59
2023/02/05 08:32:25;;;;;;;9.07;4.65;;;-1.50;99.90;;;;;;5045523;28;20052;-59
2023/02/05 08:34:51;;;;;;;9.38;4.30;;;-1.40;99.90;;;;;;5049707;28;20029;-60
2023/02/05 08:37:16;;;;;;;10.02;5.00;;;-1.40;99.90;;;;;;5028053;28;20029;-60
2023/02/05 08:39:42;;;;;;;7.93;4.25;;;-1.20;99.90;;;;;;5029462;28;20025;-60
2023/02/05 08:42:07;;;;;;;7.22;3.67;;;-1.10;99.90;;;;;;5045382;28;20048;-60
2023/02/05 08:44:33;;;;;;;6.28;4.50;;;-1.00;99.90;;;;;;5049040;28;20061;-60
2023/02/05 08:46:58;;;;;;;8.00;3.47;;;-1.00;99.90;;;;;;5047248;28;20025;-59
2023/02/05 08:49:24;;;;;;;12.07;4.20;;;-0.90;99.90;;;;;;5049147;28;20096;-60
2023/02/05 08:51:50;;;;;;;8.63;4.18;;;-0.80;99.90;;;;;;5029847;28;20044;-60
2023/02/05 08:54:16;;;;;;;7.05;4.05;;;-0.70;99.90;;;;;;5027871;28;20041;-60
2023/02/05 08:56:43;;;;;;;9.88;4.38;;;-0.60;99.90;;;;;;5047977;28;20103;-60
2023/02/05 08:59:09;;;;;;;7.68;4.15;;;-0.60;99.90;;;;;;5044712;28;20037;-60
2023/02/05 09:01:36;;;;;;;6.13;4.28;;;-0.50;99.90;;;;;;5029616;28;20036;-60
2023/02/05 09:04:03;;;;;;;7.88;3.70;;;-0.50;99.90;;;;;;5046378;28;20109;-60
2023/02/05 09:06:29;;;;;;;6.50;3.35;;;-0.40;99.90;;;;;;5025863;28;20048;-60
2023/02/05 09:08:54;;;;;;;6.28;3.75;;;-0.40;99.90;;;;;;5030043;28;20105;-60
2023/02/05 09:11:25;;;;;;;6.95;4.15;;;-0.30;99.90;;;;;;5048136;28;20044;-60
2023/02/05 09:13:51;;;;;;;8.80;3.95;;;-0.30;99.90;;;;;;5044599;28;20053;-59
2023/02/05 09:16:17;;;;;;;40.53;14.35;;;-0.20;99.90;;;;;;5027404;28;20029;-57
2023/02/05 09:18:42;;;;;;;11.85;5.65;;;-0.10;99.90;;;;;;5028772;28;20147;-58
2023/02/05 09:21:09;;;;;;;7.20;4.32;;;0.00;99.90;;;;;;5043816;28;20041;-60
2023/02/05 09:23:36;;;;;;;7.65;4.18;;;0.10;99.90;;;;;;5046864;28;20041;-58
2023/02/05 09:26:01;;;;;;;6.60;4.05;;;0.10;99.10;;;;;;5025486;28;20045;-58
2023/02/05 09:28:27;;;;;;;6.50;3.65;;;0.10;94.60;;;;;;5029772;28;20126;-58
2023/02/05 09:30:52;;;;;;;6.13;3.75;;;0.10;93.20;;;;;;5047804;28;20473;-58
2023/02/05 09:33:18;;;;;;;5.55;3.30;;;0.10;93.60;;;;;;5026656;28;20122;-58
2023/02/05 09:35:43;;;;;;;4.70;2.85;;;0.10;94.30;;;;;;5028223;28;20041;-59
2023/02/05 09:38:13;;;;;;;7.60;3.30;;;0.20;96.30;;;;;;5045359;28;20459;-58
2023/02/05 09:40:43;;;;;;;7.18;2.67;;;0.30;96.30;;;;;;5048021;28;20047;-58
2023/02/05 09:43:28;;;;;;;3.90;2.38;;;0.40;95.30;;;;;;5040547;28;20029;-58
2023/02/05 09:46:02;;;;;;;17.77;7.20;;;0.40;95.60;;;;;;5048446;28;20037;-59
2023/02/05 09:48:48;;;;;;;6.82;3.38;;;0.50;94.40;;;;;;5039704;28;20021;-59
2023/02/05 09:51:15;;;;;;;;;;;0.70;95.00;;;;;;5028832;28;20033;-59
2023/02/05 09:53:45;;;;;;;4.47;2.50;;;0.70;91.10;;;;;;5047092;28;20058;-59
2023/02/05 09:56:13;;;;;;;4.25;2.42;;;0.80;92.60;;;;;;5045710;28;20031;-59
2023/02/05 09:58:43;;;;;;;6.78;3.00;;;0.80;91.20;;;;;;5025315;28;20025;-59
2023/02/05 10:01:19;;;;;;;5.10;3.20;;;0.80;86.90;;;;;;5028045;28;20033;-59
2023/02/05 10:03:52;;;;;;;;;;;0.90;90.80;;;;;;5026568;28;20125;-59
2023/02/05 10:06:34;;;;;;;4.90;2.88;;;1.00;89.00;;;;;;5033655;28;19913;-59
2023/02/05 10:09:27;;;;;;;4.22;2.70;;;1.00;83.70;;;;;;5041020;28;20104;-60
2023/02/05 10:12:18;;;;;;;5.03;2.75;;;1.00;86.40;;;;;;5039108;28;20036;-60
2023/02/05 10:14:43;;;;;;;6.38;2.47;;;1.10;87.20;;;;;;5026075;28;20049;-60
2023/02/05 10:17:15;;;;;;;4.25;2.33;;;1.20;85.30;;;;;;5028862;28;20075;-60
2023/02/05 10:19:40;;;;;;;4.20;2.33;;;1.20;89.30;;;;;;5030171;28;20108;-59
2023/02/05 10:22:26;;;;;;;6.40;2.53;;;1.30;87.10;;;;;;5028699;28;20117;-60
2023/02/05 10:24:54;;;;;;;4.70;2.13;;;1.40;85.80;;;;;;5046986;28;20052;-60
2023/02/05 10:27:23;;;;;;;3.05;2.28;;;1.40;82.10;;;;;;5045210;28;20037;-59
2023/02/05 10:29:57;;;;;;;4.30;2.25;;;1.40;83.20;;;;;;5028153;28;20037;-60
2023/02/05 10:32:31;;;;;;;3.75;2.28;;;1.40;80.30;;;;;;5044473;28;20056;-61
2023/02/05 10:35:25;;;;;;;5.75;2.60;;;1.40;77.20;;;;;;5027850;28;20083;-60
2023/02/05 10:37:54;;;;;;;4.38;2.22;;;1.40;77.90;;;;;;5027869;28;20448;-56
2023/02/05 10:40:27;;;;;;;3.35;2.30;;;1.50;81.40;;;;;;5045212;28;20021;-58
2023/02/05 10:43:12;;;;;;;6.10;3.70;;;1.50;84.20;;;;;;5046843;28;20074;-59
2023/02/05 10:45:38;;;;;;;4.53;2.45;;;1.60;79.80;;;;;;5025382;28;20033;-58
2023/02/05 10:48:38;;;;;;;6.75;2.35;;;1.60;79.60;;;;;;5027346;28;20060;-59
2023/02/05 10:51:06;;;;;;;4.15;2.28;;;1.60;74.40;;;;;;5025422;28;20071;-58
2023/02/05 10:53:35;;;;;;;3.03;1.58;;;1.50;76.90;;;;;;5046915;28;20063;-59
2023/02/05 10:56:02;;;;;;;4.88;2.38;;;1.60;79.20;;;;;;5029110;28;20513;-58
2023/02/05 10:58:46;;;;;;;5.75;2.72;;;1.60;75.00;;;;;;5030858;28;20164;-57
2023/02/05 11:01:24;;;;;;;5.20;2.15;;;1.70;76.00;;;;;;5029201;28;20025;-58
2023/02/05 11:04:00;;;;;;;5.80;2.22;;;1.70;73.50;;;;;;5031104;28;20528;-59
2023/02/05 11:06:28;;;;;;;30.05;17.77;;;1.80;78.30;;;;;;5045180;28;20713;-59
2023/02/05 11:08:55;;;;;;;8.73;5.38;;;1.80;76.00;;;;;;5030847;28;20586;-59
2023/02/05 11:11:27;;;;;;;6.63;3.20;;;1.90;74.30;;;;;;5048267;28;20104;-58
2023/02/05 11:13:58;;;;;;;8.43;3.85;;;1.80;73.00;;;;;;5029773;28;20045;-59
2023/02/05 11:16:36;;;;;;;4.07;3.17;;;1.80;72.50;;;;;;5028944;28;20044;-59
2023/02/05 11:19:02;;;;;;;4.38;2.42;;;1.80;71.80;;;;;;5029460;28;20021;-58
2023/02/05 11:21:50;;;;;;;2.65;1.90;;;1.60;70.70;;;;;;5036623;28;20073;-57
2023/02/05 11:24:44;;;;;;;4.10;2.10;;;1.50;75.10;;;;;;5049747;28;20037;-58
2023/02/05 11:27:27;;;;;;;4.47;2.10;;;1.50;75.70;;;;;;5018434;28;20046;-58
2023/02/05 11:29:55;;;;;;;3.22;1.95;;;1.50;74.60;;;;;;5029866;28;20022;-59
2023/02/05 11:32:30;;;;;;;5.57;2.00;;;1.50;74.20;;;;;;5047882;28;20028;-58
2023/02/05 11:35:20;;;;;;;3.40;1.95;;;1.50;75.50;;;;;;5032887;28;20451;-59
2023/02/05 11:37:52;;;;;;;2.58;1.90;;;1.60;74.50;;;;;;5047804;28;20025;-58
2023/02/05 11:40:25;;;;;;;5.13;2.08;;;1.60;75.20;;;;;;5044419;28;20028;-56
2023/02/05 11:43:06;;;;;;;5.13;1.77;;;1.70;76.20;;;;;;5047664;28;20091;-58
2023/02/05 11:45:36;;;;;;;4.18;2.22;;;1.80;74.50;;;;;;5037979;28;20130;-57
2023/02/05 11:48:05;;;;;;;5.10;2.40;;;1.90;74.80;;;;;;5037966;28;20033;-55
2023/02/05 11:50:32;;;;;;;3.40;1.98;;;1.80;70.00;;;;;;5037506;28;20120;-58
2023/02/05 11:53:18;;;;;;;5.45;1.75;;;1.80;72.80;;;;;;5036218;28;20030;-58
2023/02/05 11:55:44;;;;;;;6.25;2.10;;;1.90;75.00;;;;;;5024020;28;20134;-56
2023/02/05 11:58:26;;;;;;;4.38;2.22;;;2.00;75.40;;;;;;5040948;28;20033;-57
2023/02/05 12:00:56;;;;;;;4.55;1.73;;;2.00;75.40;;;;;;5039783;28;20786;-58
2023/02/05 12:03:25;;;;;;;1.75;1.40;;;2.00;74.80;;;;;;5035452;28;20033;-58
2023/02/05 12:05:55;;;;;;;6.97;2.05;;;2.10;74.10;;;;;;5028479;28;20029;-55
2023/02/05 12:08:39;;;;;;;3.35;1.73;;;2.10;73.30;;;;;;5043798;28;20424;-58
2023/02/05 12:11:24;;;;;;;5.60;2.13;;;2.20;71.50;;;;;;5037736;28;20025;-57
2023/02/05 12:14:08;;;;;;;3.97;1.92;;;2.00;68.70;;;;;;5037651;28;20044;-57
2023/02/05 12:16:46;;;;;;;3.80;1.95;;;2.00;70.80;;;;;;5041113;28;20083;-59
2023/02/05 12:19:23;;;;;;;4.13;2.25;;;2.10;73.80;;;;;;5044000;28;20032;-58
2023/02/05 12:22:13;;;;;;;6.15;2.47;;;2.10;71.30;;;;;;5037577;28;20441;-57
2023/02/05 12:24:54;;;;;;;3.65;2.15;;;2.10;68.80;;;;;;5031678;28;20626;-59
2023/02/05 12:27:40;;;;;;;6.18;2.65;;;2.00;68.70;;;;;;5044461;28;20024;-59
2023/02/05 12:30:30;;;;;;;9.50;3.40;;;2.10;73.60;;;;;;5038150;28;20036;-58
2023/02/05 12:33:23;;;;;;;4.10;2.50;;;2.20;70.00;;;;;;5037904;28;20025;-57
2023/02/05 12:36:02;;;;;;;4.95;2.20;;;2.20;70.40;;;;;;5030511;28;20029;-59
2023/02/05 12:38:55;;;;;;;3.65;2.08;;;2.20;69.00;;;;;;5032556;28;20114;-58
2023/02/05 12:41:42;;;;;;;8.27;2.80;;;2.20;71.00;;;;;;5031378;28;20033;-57
2023/02/05 12:44:36;;;;;;;3.90;2.47;;;2.30;68.30;;;;;;5030148;28;20037;-58
2023/02/05 12:47:20;;;;;;;3.90;2.15;;;2.20;69.90;;;;;;5038238;28;20025;-58
2023/02/05 12:50:13;;;;;;;3.58;2.08;;;2.30;68.50;;;;;;5044287;28;20041;-59
2023/02/05 12:52:57;;;;;;;4.95;2.45;;;2.30;70.00;;;;;;5004057;28;20861;-58
2023/02/05 12:55:46;;;;;;;6.07;2.45;;;2.30;66.30;;;;;;5042715;28;20033;-59
2023/02/05 12:58:15;;;;;;;5.15;2.40;;;2.40;69.60;;;;;;5033091;28;20042;-58
2023/02/05 13:00:50;;;;;;;6.00;2.70;;;2.50;67.10;;;;;;5039687;28;20604;-59
2023/02/05 13:03:33;;;;;;;7.95;2.80;;;2.50;66.20;;;;;;5027831;28;20029;-58
2023/02/05 13:06:23;;;;;;;4.47;2.60;;;2.50;67.70;;;;;;5027628;28;20029;-54
2023/02/05 13:09:03;;;;;;;6.22;2.33;;;2.60;66.80;;;;;;5020827;28;20096;-49